Terminal Aerodrome Forecast
Issued by NWS Spokane, WA

Home | Current Version | Previous Version | Text Only | Print | Product List | Glossary On
Versions: 1 2 3 4 5 6 7 8 9 10 11 12 13 14 15 16 17 18 19 20 21 22 23
000
FTUS46 KOTX 231139
TAFGEG
TAF
KGEG 231139Z 2312/2412 18008KT P6SM VCSH FEW030 BKN080
     FM231400 19011KT P6SM -RA SCT025 OVC040
     FM231800 19014KT P6SM VCSH FEW028 BKN040 OVC070
      TEMPO 2319/2321 -SHRA
     FM232200 21015G23KT P6SM VCTS SCT020 BKN040CB OVC060
      TEMPO 2322/2324 24018G32KT 6SM -TSRA BKN025CB OVC050
     FM240100 22015KT P6SM BKN050
     FM241000 21009KT P6SM SCT012 BKN080=

USA.gov is the U.S. government's official web portal to all federal, state and local government web resources and services.